Time;durP1;ratioP1;P1;durP2;ratioP2;P2;SDS_P1;SDS_P2;PMS_P1;PMS_P2;Temp;Humidity;BMP_temperature;BMP_pressure;BME280_temperature;BME280_humidity;BME280_pressure;Samples;Min_cycle;Max_cycle;Signal;HPM_P1;HPM_P2
2022/04/24 00:00:06;;;;;;;253.63;97.07;;;;;;;;;;5029884;28;20485;-72
2022/04/24 00:02:34;;;;;;;71.43;60.77;;;;;;;;;;5037371;28;21103;-72
2022/04/24 00:05:02;;;;;;;174.27;87.63;;;;;;;;;;5036027;28;20580;-72
2022/04/24 00:07:30;;;;;;;136.13;80.40;;;;;;;;;;5037007;28;20528;-72
2022/04/24 00:09:58;;;;;;;196.40;95.70;;;;;;;;;;5037243;28;20741;-72
2022/04/24 00:12:27;;;;;;;200.77;92.80;;;;;;;;;;5036654;28;20443;-72
2022/04/24 00:14:54;;;;;;;209.87;97.97;;;;;;;;;;5036725;28;20934;-72
2022/04/24 00:17:22;;;;;;;172.47;83.50;;;;;;;;;;5036633;28;20520;-72
2022/04/24 00:19:50;;;;;;;182.13;93.97;;;;;;;;;;5037139;28;20515;-72
2022/04/24 00:22:18;;;;;;;223.67;96.93;;;;;;;;;;5037234;28;21081;-72
2022/04/24 00:24:50;;;;;;;145.47;87.13;;;;;;;;;;5032488;28;20488;-73
2022/04/24 00:27:21;;;;;;;193.53;92.00;;;;;;;;;;5036395;28;20884;-73
2022/04/24 00:29:51;;;;;;;160.23;88.07;;;;;;;;;;5033023;28;20837;-72
2022/04/24 00:32:19;;;;;;;145.53;88.27;;;;;;;;;;5036846;28;20450;-72
2022/04/24 00:34:46;;;;;;;161.83;81.17;;;;;;;;;;5021627;28;20443;-72
2022/04/24 00:37:14;;;;;;;187.77;93.80;;;;;;;;;;5034682;28;20455;-72
2022/04/24 00:39:41;;;;;;;197.47;89.23;;;;;;;;;;5037272;28;20469;-72
2022/04/24 00:42:10;;;;;;;215.53;93.63;;;;;;;;;;5035769;28;20524;-72
2022/04/24 00:44:38;;;;;;;179.07;85.53;;;;;;;;;;5034835;28;20485;-72
2022/04/24 00:47:11;;;;;;;274.93;94.87;;;;;;;;;;5023017;28;20463;-72
2022/04/24 00:49:38;;;;;;;191.03;89.50;;;;;;;;;;5016177;28;20534;-72
2022/04/24 00:52:06;;;;;;;181.00;88.17;;;;;;;;;;5026904;28;20466;-72
2022/04/24 00:54:34;;;;;;;210.67;83.33;;;;;;;;;;5036030;28;20453;-72
2022/04/24 00:57:02;;;;;;;227.33;91.70;;;;;;;;;;5028432;28;20797;-72
2022/04/24 00:59:30;;;;;;;200.77;88.40;;;;;;;;;;5032223;28;20461;-72
2022/04/24 01:02:00;;;;;;;210.93;91.67;;;;;;;;;;5022829;28;20458;-72
2022/04/24 01:04:29;;;;;;;211.90;93.00;;;;;;;;;;5024544;28;20553;-72
2022/04/24 01:06:57;;;;;;;199.10;89.57;;;;;;;;;;5031149;28;20561;-72
2022/04/24 01:09:25;;;;;;;201.53;87.73;;;;;;;;;;5035194;28;20454;-72
2022/04/24 01:11:55;;;;;;;219.70;94.07;;;;;;;;;;5033894;28;21066;-72
2022/04/24 01:14:25;;;;;;;192.00;88.97;;;;;;;;;;5035417;28;20454;-71
2022/04/24 01:16:53;;;;;;;282.47;95.77;;;;;;;;;;5020692;28;20524;-73
2022/04/24 01:19:21;;;;;;;232.97;92.83;;;;;;;;;;5019221;28;20451;-72
2022/04/24 01:21:51;;;;;;;284.30;99.83;;;;;;;;;;5031930;28;20954;-72
2022/04/24 01:24:19;;;;;;;189.43;90.20;;;;;;;;;;5022228;28;20505;-72
2022/04/24 01:26:47;;;;;;;212.57;93.07;;;;;;;;;;5035306;28;20508;-72
2022/04/24 01:29:16;;;;;;;186.87;83.17;;;;;;;;;;5035723;28;20516;-72
2022/04/24 01:31:48;;;;;;;252.57;98.63;;;;;;;;;;5035658;28;20546;-73
2022/04/24 01:34:16;;;;;;;190.03;85.93;;;;;;;;;;5035173;28;20521;-72
2022/04/24 01:36:44;;;;;;;218.70;92.13;;;;;;;;;;5019782;28;20748;-72
2022/04/24 01:39:14;;;;;;;135.47;86.47;;;;;;;;;;5015635;28;20554;-73
2022/04/24 01:41:41;;;;;;;149.33;84.23;;;;;;;;;;5015700;28;20483;-72
2022/04/24 01:44:09;;;;;;;166.10;81.03;;;;;;;;;;5016160;28;20775;-72
2022/04/24 01:46:36;;;;;;;217.37;87.50;;;;;;;;;;5015259;28;20791;-72
2022/04/24 01:49:05;;;;;;;224.07;87.27;;;;;;;;;;5015694;28;20697;-72
2022/04/24 01:51:33;;;;;;;228.23;86.43;;;;;;;;;;5015650;28;20549;-72
2022/04/24 01:54:03;;;;;;;294.17;97.50;;;;;;;;;;5015703;28;20459;-73
2022/04/24 01:56:32;;;;;;;256.53;92.77;;;;;;;;;;5015900;28;20888;-73
2022/04/24 01:59:02;;;;;;;268.53;93.70;;;;;;;;;;5015436;28;20461;-72
2022/04/24 02:01:30;;;;;;;255.37;89.57;;;;;;;;;;5020749;28;20459;-72
2022/04/24 02:03:58;;;;;;;281.37;94.07;;;;;;;;;;5026742;28;20908;-73
2022/04/24 02:06:27;;;;;;;303.13;95.07;;;;;;;;;;5018987;28;20466;-72
2022/04/24 02:08:58;;;;;;;235.20;95.60;;;;;;;;;;5018425;28;20447;-72
2022/04/24 02:11:25;;;;;;;300.30;95.40;;;;;;;;;;5019404;28;20856;-72
2022/04/24 02:13:54;;;;;;;302.37;98.57;;;;;;;;;;5025692;28;20450;-72
2022/04/24 02:16:22;;;;;;;226.57;86.83;;;;;;;;;;5039437;28;20474;-72
2022/04/24 02:18:50;;;;;;;240.97;93.00;;;;;;;;;;5025709;28;20451;-72
2022/04/24 02:21:17;;;;;;;306.10;98.03;;;;;;;;;;5029658;28;20565;-72
2022/04/24 02:23:46;;;;;;;299.03;92.47;;;;;;;;;;5038071;28;20482;-72
2022/04/24 02:26:16;;;;;;;285.37;91.50;;;;;;;;;;5039432;28;20472;-72
2022/04/24 02:28:44;;;;;;;295.60;99.50;;;;;;;;;;5038313;28;20740;-72
2022/04/24 02:31:14;;;;;;;313.97;89.57;;;;;;;;;;5038527;28;20556;-72
2022/04/24 02:33:43;;;;;;;320.87;94.10;;;;;;;;;;5039106;28;20446;-73
2022/04/24 02:36:11;;;;;;;267.17;95.07;;;;;;;;;;5038540;28;20482;-72
2022/04/24 02:38:40;;;;;;;317.10;98.80;;;;;;;;;;5038998;28;20827;-73
2022/04/24 02:41:09;;;;;;;305.47;96.00;;;;;;;;;;5038545;28;20476;-73
2022/04/24 02:43:39;;;;;;;320.27;93.73;;;;;;;;;;5037642;28;20559;-72
2022/04/24 02:46:07;;;;;;;324.13;99.27;;;;;;;;;;5038621;28;20470;-72
2022/04/24 02:48:37;;;;;;;329.47;100.67;;;;;;;;;;5038027;28;20932;-72
2022/04/24 02:51:06;;;;;;;310.07;90.07;;;;;;;;;;5039730;28;20481;-73
2022/04/24 02:53:37;;;;;;;285.87;98.07;;;;;;;;;;5038256;28;20446;-73
2022/04/24 02:56:07;;;;;;;300.97;97.43;;;;;;;;;;5038251;28;20464;-72
2022/04/24 02:58:38;;;;;;;306.83;95.63;;;;;;;;;;5038194;28;20446;-72
2022/04/24 03:01:05;;;;;;;317.63;96.13;;;;;;;;;;5038769;28;20462;-72
2022/04/24 03:03:33;;;;;;;334.80;104.77;;;;;;;;;;5036948;28;20551;-72
2022/04/24 03:06:02;;;;;;;326.17;98.23;;;;;;;;;;5019145;28;20459;-72
2022/04/24 03:08:30;;;;;;;314.33;88.13;;;;;;;;;;5018539;28;20462;-72
2022/04/24 03:10:58;;;;;;;332.03;94.93;;;;;;;;;;5026573;28;20458;-72
2022/04/24 03:13:27;;;;;;;328.67;97.13;;;;;;;;;;5036031;28;20446;-73
2022/04/24 03:15:55;;;;;;;341.10;102.47;;;;;;;;;;5038105;28;20462;-72
2022/04/24 03:18:26;;;;;;;315.43;93.67;;;;;;;;;;5038272;28;20494;-72
2022/04/24 03:20:56;;;;;;;324.87;92.87;;;;;;;;;;5037255;28;20455;-71
2022/04/24 03:23:25;;;;;;;334.67;96.37;;;;;;;;;;5037524;28;20805;-71
2022/04/24 03:25:53;;;;;;;323.33;92.27;;;;;;;;;;5038233;28;20469;-71
2022/04/24 03:28:21;;;;;;;328.90;96.70;;;;;;;;;;5038051;28;20866;-71
2022/04/24 03:30:48;;;;;;;334.40;93.77;;;;;;;;;;5037288;28;20549;-71
2022/04/24 03:33:16;;;;;;;312.10;98.33;;;;;;;;;;5037985;28;20447;-71
2022/04/24 03:35:44;;;;;;;338.33;98.07;;;;;;;;;;5037110;28;20679;-72
2022/04/24 03:38:11;;;;;;;338.00;98.70;;;;;;;;;;5036760;28;20783;-72
2022/04/24 03:40:41;;;;;;;323.67;94.07;;;;;;;;;;5037258;28;20466;-72
2022/04/24 03:43:09;;;;;;;327.33;92.73;;;;;;;;;;5038655;28;20455;-72
2022/04/24 03:45:36;;;;;;;258.00;87.60;;;;;;;;;;5036183;28;20497;-72
2022/04/24 03:48:04;;;;;;;252.57;84.90;;;;;;;;;;5037296;28;20980;-72
2022/04/24 03:50:31;;;;;;;271.93;92.30;;;;;;;;;;5037356;28;20462;-71
2022/04/24 03:52:59;;;;;;;275.50;94.60;;;;;;;;;;5037066;28;20516;-71
2022/04/24 03:55:29;;;;;;;265.07;85.73;;;;;;;;;;5036657;28;20877;-71
2022/04/24 03:57:58;;;;;;;254.27;86.70;;;;;;;;;;5036695;28;20524;-73
2022/04/24 04:00:26;;;;;;;243.40;94.23;;;;;;;;;;5037406;28;20497;-72
2022/04/24 04:02:53;;;;;;;318.13;97.47;;;;;;;;;;5036085;28;20809;-72
2022/04/24 04:05:22;;;;;;;261.17;88.70;;;;;;;;;;5036700;28;20487;-72
2022/04/24 04:07:52;;;;;;;317.00;95.50;;;;;;;;;;5036403;28;20509;-72
2022/04/24 04:10:21;;;;;;;327.50;102.57;;;;;;;;;;5036434;28;20489;-72
2022/04/24 04:12:51;;;;;;;288.20;95.57;;;;;;;;;;5037356;28;20874;-72
2022/04/24 04:15:24;;;;;;;302.73;98.17;;;;;;;;;;5036453;28;20723;-72
2022/04/24 04:17:52;;;;;;;354.83;96.57;;;;;;;;;;5037362;28;20511;-72
2022/04/24 04:20:20;;;;;;;361.57;102.03;;;;;;;;;;5036086;28;20449;-72
2022/04/24 04:22:51;;;;;;;350.37;90.83;;;;;;;;;;5036562;28;20462;-72
2022/04/24 04:25:19;;;;;;;303.17;87.93;;;;;;;;;;5036370;28;20486;-72
2022/04/24 04:27:47;;;;;;;339.37;92.10;;;;;;;;;;5032815;28;20464;-72
2022/04/24 04:30:17;;;;;;;360.20;102.97;;;;;;;;;;5029154;28;20470;-73
2022/04/24 04:32:46;;;;;;;101.93;66.40;;;;;;;;;;5036677;28;20549;-72
2022/04/24 04:35:15;;;;;;;29.03;17.57;;;;;;;;;;5036239;28;20446;-72
2022/04/24 04:37:42;;;;;;;6.80;5.63;;;;;;;;;;5035482;28;20469;-72
2022/04/24 04:40:23;;;;;;;6.13;5.53;;;;;;;;;;5036406;28;20509;-71
2022/04/24 04:42:51;;;;;;;14.27;12.97;;;;;;;;;;5036006;28;20745;-70
2022/04/24 04:45:19;;;;;;;5.87;3.03;;;;;;;;;;5035742;28;20479;-72
2022/04/24 04:47:48;;;;;;;11.30;10.60;;;;;;;;;;5035841;28;20454;-73
2022/04/24 04:50:23;;;;;;;231.47;75.47;;;;;;;;;;5036031;28;20447;-71
2022/04/24 04:52:51;;;;;;;279.03;92.13;;;;;;;;;;5035204;28;20536;-72
2022/04/24 04:55:20;;;;;;;31.43;17.10;;;;;;;;;;5036271;28;20446;-71
2022/04/24 04:57:48;;;;;;;233.60;74.50;;;;;;;;;;5035707;28;20461;-72
2022/04/24 05:00:17;;;;;;;199.50;75.50;;;;;;;;;;5036053;28;20451;-72
2022/04/24 05:02:47;;;;;;;292.80;82.83;;;;;;;;;;5036817;28;20465;-72
2022/04/24 05:05:16;;;;;;;295.33;94.57;;;;;;;;;;5035626;28;20756;-72
2022/04/24 05:07:44;;;;;;;264.07;92.60;;;;;;;;;;5035729;28;20478;-72
2022/04/24 05:10:12;;;;;;;324.77;92.50;;;;;;;;;;5034962;28;20553;-73
2022/04/24 05:12:40;;;;;;;322.90;93.03;;;;;;;;;;5036488;28;20462;-72
2022/04/24 05:15:09;;;;;;;314.87;95.67;;;;;;;;;;5035522;28;20443;-72
2022/04/24 05:17:37;;;;;;;244.87;82.13;;;;;;;;;;5035762;28;20469;-72
2022/04/24 05:20:06;;;;;;;315.33;98.53;;;;;;;;;;5018393;28;20459;-72
2022/04/24 05:22:35;;;;;;;317.10;98.77;;;;;;;;;;5015830;28;20529;-72
2022/04/24 05:25:03;;;;;;;299.93;95.77;;;;;;;;;;5034087;28;20972;-72
2022/04/24 05:27:30;;;;;;;13.77;12.63;;;;;;;;;;5033593;28;20535;-72
2022/04/24 05:29:58;;;;;;;46.97;43.33;;;;;;;;;;5019355;28;20525;-72
2022/04/24 05:32:26;;;;;;;57.13;52.07;;;;;;;;;;5017017;28;20459;-72
2022/04/24 05:34:54;;;;;;;74.30;67.20;;;;;;;;;;5024669;28;20752;-72
2022/04/24 05:37:22;;;;;;;109.63;72.77;;;;;;;;;;5033923;28;20469;-72
2022/04/24 05:39:51;;;;;;;103.40;76.90;;;;;;;;;;5022805;28;20827;-71
2022/04/24 05:42:19;;;;;;;166.67;82.73;;;;;;;;;;5015199;28;20502;-72
2022/04/24 05:44:46;;;;;;;144.73;79.47;;;;;;;;;;5024334;28;20492;-72
2022/04/24 05:47:15;;;;;;;148.27;76.13;;;;;;;;;;5030619;28;20451;-72
2022/04/24 05:49:42;;;;;;;173.00;83.07;;;;;;;;;;5026179;28;20786;-74
2022/04/24 05:52:10;;;;;;;292.13;92.27;;;;;;;;;;5014247;28;20818;-72
2022/04/24 05:54:38;;;;;;;315.23;96.13;;;;;;;;;;5015455;28;20525;-73
2022/04/24 05:57:08;;;;;;;265.70;87.37;;;;;;;;;;5015852;28;20522;-73
2022/04/24 05:59:36;;;;;;;269.10;88.53;;;;;;;;;;5015301;28;20469;-72
2022/04/24 06:02:04;;;;;;;92.37;64.93;;;;;;;;;;5015461;28;21161;-72
2022/04/24 06:04:32;;;;;;;196.77;77.77;;;;;;;;;;5018129;28;20969;-73
2022/04/24 06:07:00;;;;;;;181.50;79.87;;;;;;;;;;5030667;28;20461;-73
2022/04/24 06:09:27;;;;;;;111.07;70.37;;;;;;;;;;5015228;28;20447;-72
2022/04/24 06:11:58;;;;;;;187.47;85.27;;;;;;;;;;5015985;28;20478;-73
2022/04/24 06:14:28;;;;;;;77.87;61.90;;;;;;;;;;5029589;28;20463;-73
2022/04/24 06:17:00;;;;;;;55.80;50.60;;;;;;;;;;5021585;28;20538;-72
2022/04/24 06:19:28;;;;;;;78.73;59.47;;;;;;;;;;5035261;28;20917;-72
2022/04/24 06:21:56;;;;;;;81.47;65.77;;;;;;;;;;5034891;28;20447;-72
2022/04/24 06:24:23;;;;;;;55.20;50.40;;;;;;;;;;5035140;28;20879;-72
2022/04/24 06:26:51;;;;;;;234.00;82.00;;;;;;;;;;5025107;28;20455;-73
2022/04/24 06:29:19;;;;;;;65.70;59.27;;;;;;;;;;5015898;28;20759;-73
2022/04/24 06:31:48;;;;;;;152.87;80.50;;;;;;;;;;5019670;28;20513;-73
2022/04/24 06:34:16;;;;;;;154.90;80.57;;;;;;;;;;5020913;28;20459;-72
2022/04/24 06:36:43;;;;;;;127.77;76.77;;;;;;;;;;5022411;28;20987;-71
2022/04/24 06:39:11;;;;;;;163.20;82.27;;;;;;;;;;5015183;28;20880;-72
2022/04/24 06:41:39;;;;;;;209.80;87.10;;;;;;;;;;5015082;28;20459;-72
2022/04/24 06:44:07;;;;;;;182.27;80.90;;;;;;;;;;5026544;28;20470;-71
2022/04/24 06:46:34;;;;;;;280.20;95.27;;;;;;;;;;5033883;28;20580;-72
2022/04/24 06:49:04;;;;;;;242.80;90.27;;;;;;;;;;5033537;28;21022;-72
2022/04/24 06:51:31;;;;;;;165.33;86.40;;;;;;;;;;5036641;28;20458;-72
2022/04/24 06:53:59;;;;;;;121.27;76.90;;;;;;;;;;5037067;28;20454;-72
2022/04/24 06:56:27;;;;;;;344.33;97.53;;;;;;;;;;5037745;28;20468;-72
2022/04/24 06:58:55;;;;;;;213.47;91.70;;;;;;;;;;5038309;28;20519;-72
2022/04/24 07:01:23;;;;;;;127.40;87.47;;;;;;;;;;5037551;28;20523;-72
2022/04/24 07:03:51;;;;;;;153.60;88.70;;;;;;;;;;5037633;28;20450;-72
2022/04/24 07:06:20;;;;;;;264.57;97.87;;;;;;;;;;5037890;28;20555;-71
2022/04/24 07:08:48;;;;;;;171.67;89.00;;;;;;;;;;5037674;28;20454;-72
2022/04/24 07:11:15;;;;;;;196.47;92.40;;;;;;;;;;5036831;28;20464;-71
2022/04/24 07:13:43;;;;;;;256.80;97.83;;;;;;;;;;5037818;28;20474;-72
2022/04/24 07:16:11;;;;;;;198.10;100.30;;;;;;;;;;5035993;28;20519;-72
2022/04/24 07:18:39;;;;;;;178.17;89.43;;;;;;;;;;5036590;28;20455;-71
2022/04/24 07:21:07;;;;;;;191.23;90.73;;;;;;;;;;5037029;28;20499;-71
2022/04/24 07:23:37;;;;;;;347.40;104.40;;;;;;;;;;5036540;28;20439;-72
2022/04/24 07:26:05;;;;;;;326.20;101.27;;;;;;;;;;5036659;28;20489;-72
2022/04/24 07:28:33;;;;;;;369.20;108.47;;;;;;;;;;5036530;28;20712;-72
2022/04/24 07:31:00;;;;;;;327.20;107.67;;;;;;;;;;5037107;28;21144;-72
2022/04/24 07:33:28;;;;;;;369.67;116.03;;;;;;;;;;5035644;28;20455;-72
2022/04/24 07:35:56;;;;;;;373.87;120.60;;;;;;;;;;5036450;28;20892;-72
2022/04/24 07:38:25;;;;;;;355.90;105.70;;;;;;;;;;5036562;28;20516;-72
2022/04/24 07:40:58;;;;;;;368.73;110.20;;;;;;;;;;5036252;28;20520;-72
2022/04/24 07:43:28;;;;;;;370.10;110.63;;;;;;;;;;5036249;28;20500;-72
2022/04/24 07:46:02;;;;;;;354.13;108.40;;;;;;;;;;5035397;28;20501;-72
2022/04/24 07:48:35;;;;;;;210.03;99.93;;;;;;;;;;5036591;28;20466;-72
2022/04/24 07:51:03;;;;;;;103.13;56.00;;;;;;;;;;5035826;28;20457;-72
2022/04/24 07:53:31;;;;;;;72.83;67.57;;;;;;;;;;5035018;28;20458;-72
2022/04/24 07:56:00;;;;;;;62.40;57.90;;;;;;;;;;5035921;28;20533;-72
2022/04/24 07:58:28;;;;;;;224.40;111.50;;;;;;;;;;5033964;28;20559;-72
2022/04/24 08:00:56;;;;;;;297.17;104.93;;;;;;;;;;5035313;28;20453;-71
2022/04/24 08:03:24;;;;;;;157.63;103.43;;;;;;;;;;5034964;28;20458;-72
2022/04/24 08:05:52;;;;;;;130.50;98.03;;;;;;;;;;5034718;28;20548;-72
2022/04/24 08:08:20;;;;;;;287.03;122.60;;;;;;;;;;5036356;28;20537;-72
2022/04/24 08:10:49;;;;;;;259.20;113.10;;;;;;;;;;5030161;28;20524;-72
2022/04/24 08:13:19;;;;;;;250.73;116.30;;;;;;;;;;5035530;28;20478;-72
2022/04/24 08:15:47;;;;;;;294.10;114.67;;;;;;;;;;5035580;28;20840;-72
2022/04/24 08:18:15;;;;;;;316.83;122.97;;;;;;;;;;5036026;28;20442;-73
2022/04/24 08:20:43;;;;;;;293.73;124.90;;;;;;;;;;5034519;28;20457;-72
2022/04/24 08:23:16;;;;;;;141.30;120.00;;;;;;;;;;5035011;28;20484;-72
2022/04/24 08:25:43;;;;;;;190.03;120.67;;;;;;;;;;5035081;28;20496;-71
2022/04/24 08:28:13;;;;;;;309.30;135.87;;;;;;;;;;5033664;28;20457;-72
2022/04/24 08:30:43;;;;;;;270.87;129.07;;;;;;;;;;5035430;28;20455;-72
2022/04/24 08:33:13;;;;;;;261.53;125.90;;;;;;;;;;5034233;28;20469;-72
2022/04/24 08:35:48;;;;;;;263.93;126.27;;;;;;;;;;5016368;28;20474;-72
2022/04/24 08:38:16;;;;;;;132.17;119.07;;;;;;;;;;5015618;28;20532;-72
2022/04/24 08:40:44;;;;;;;301.97;132.33;;;;;;;;;;5015153;28;20461;-73
2022/04/24 08:43:15;;;;;;;286.80;139.03;;;;;;;;;;5015640;28;20459;-73
2022/04/24 08:45:49;;;;;;;248.70;135.60;;;;;;;;;;5014562;28;20585;-71
2022/04/24 08:48:17;;;;;;;204.83;122.67;;;;;;;;;;5016171;28;20465;-72
2022/04/24 08:50:45;;;;;;;282.37;148.50;;;;;;;;;;5014238;28;21050;-72
2022/04/24 08:53:13;;;;;;;247.73;132.17;;;;;;;;;;5027961;28;21028;-72
2022/04/24 08:55:41;;;;;;;142.37;126.77;;;;;;;;;;5033831;28;20458;-72
2022/04/24 08:58:10;;;;;;;140.97;119.90;;;;;;;;;;5034246;28;20454;-72
2022/04/24 09:00:38;;;;;;;181.90;139.73;;;;;;;;;;5034549;28;20460;-72
2022/04/24 09:03:08;;;;;;;133.20;120.93;;;;;;;;;;5034132;28;20486;-73
2022/04/24 09:05:37;;;;;;;159.30;144.57;;;;;;;;;;5034045;28;20482;-73
2022/04/24 09:08:09;;;;;;;168.13;147.70;;;;;;;;;;5033936;28;20466;-72
2022/04/24 09:10:49;;;;;;;145.67;131.60;;;;;;;;;;5034705;28;20725;-72
2022/04/24 09:14:14;;;;;;;153.27;130.50;;;;;;;;;;5033261;28;20893;-72
2022/04/24 09:16:23;;;;;;;159.53;142.03;;;;;;;;;;5034531;28;20515;-73
2022/04/24 09:18:53;;;;;;;129.67;117.93;;;;;;;;;;5033598;28;20732;-73
2022/04/24 09:21:21;;;;;;;150.93;135.97;;;;;;;;;;5033888;28;20516;-73
2022/04/24 09:23:49;;;;;;;121.77;111.47;;;;;;;;;;5033038;28;20470;-73
2022/04/24 09:26:18;;;;;;;170.13;154.03;;;;;;;;;;5034589;28;20486;-73
2022/04/24 09:28:46;;;;;;;103.17;96.53;;;;;;;;;;5035232;28;20458;-72
2022/04/24 09:31:14;;;;;;;111.43;104.70;;;;;;;;;;5035272;28;20537;-72
2022/04/24 09:33:43;;;;;;;124.53;115.63;;;;;;;;;;5033893;28;20500;-72
2022/04/24 09:36:12;;;;;;;97.27;91.33;;;;;;;;;;5032815;28;20454;-71
2022/04/24 09:38:44;;;;;;;154.73;139.90;;;;;;;;;;5033596;28;20482;-72
2022/04/24 09:41:18;;;;;;;179.10;143.10;;;;;;;;;;5031355;28;20557;-71
2022/04/24 09:43:49;;;;;;;185.80;139.77;;;;;;;;;;5032528;28;20457;-72
2022/04/24 09:46:29;;;;;;;100.90;94.83;;;;;;;;;;5033060;28;20478;-71
2022/04/24 09:48:59;;;;;;;138.77;126.23;;;;;;;;;;5032756;28;20468;-72
2022/04/24 09:51:28;;;;;;;106.50;100.20;;;;;;;;;;5032346;28;20521;-72
2022/04/24 09:53:59;;;;;;;172.00;156.73;;;;;;;;;;5033025;28;20452;-73
2022/04/24 09:56:28;;;;;;;202.97;149.73;;;;;;;;;;5034528;28;20458;-71
2022/04/24 09:58:56;;;;;;;169.47;141.07;;;;;;;;;;5033737;28;20519;-72
2022/04/24 10:01:24;;;;;;;98.00;92.20;;;;;;;;;;5033164;28;20462;-72
2022/04/24 10:03:52;;;;;;;165.90;150.00;;;;;;;;;;5033114;28;20449;-72
2022/04/24 10:06:22;;;;;;;129.80;120.53;;;;;;;;;;5033121;28;20581;-71
2022/04/24 10:08:52;;;;;;;107.53;101.03;;;;;;;;;;5032159;28;20530;-74
2022/04/24 10:11:20;;;;;;;163.97;149.23;;;;;;;;;;5033737;28;20541;-73
2022/04/24 10:13:48;;;;;;;203.33;185.70;;;;;;;;;;5033489;28;20454;-72
2022/04/24 10:16:29;;;;;;;42.00;40.20;;;;;;;;;;5032560;28;20474;-72
2022/04/24 10:19:00;;;;;;;47.67;45.43;;;;;;;;;;5032332;28;20542;-74
2022/04/24 10:21:49;;;;;;;54.80;52.03;;;;;;;;;;5033789;28;20844;-72
2022/04/24 10:24:18;;;;;;;24.10;22.50;;;;;;;;;;5028366;28;20497;-72
2022/04/24 10:26:54;;;;;;;22.27;21.17;;;;;;;;;;5035850;28;20490;-72
2022/04/24 10:29:21;;;;;;;34.80;33.13;;;;;;;;;;5036488;28;20450;-74
2022/04/24 10:31:50;;;;;;;20.20;19.03;;;;;;;;;;5036931;28;20462;-73
2022/04/24 10:34:19;;;;;;;23.40;21.73;;;;;;;;;;5034155;28;20473;-73
2022/04/24 10:37:00;;;;;;;97.30;91.47;;;;;;;;;;5036933;28;21063;-72
2022/04/24 10:39:30;;;;;;;100.17;94.47;;;;;;;;;;5036650;28;20462;-72
2022/04/24 10:41:58;;;;;;;86.20;81.43;;;;;;;;;;5036279;28;20458;-73
2022/04/24 10:44:31;;;;;;;82.00;77.10;;;;;;;;;;5040237;28;20457;-74
2022/04/24 10:46:59;;;;;;;65.13;61.70;;;;;;;;;;5035797;28;20490;-72
2022/04/24 10:49:27;;;;;;;184.70;165.50;;;;;;;;;;5036362;28;20445;-72
2022/04/24 10:52:07;;;;;;;83.77;79.20;;;;;;;;;;5035211;28;20731;-72
2022/04/24 10:54:43;;;;;;;69.73;65.70;;;;;;;;;;5037453;28;20473;-73
2022/04/24 10:57:19;;;;;;;86.33;81.40;;;;;;;;;;5017412;28;21085;-72
2022/04/24 10:59:55;;;;;;;103.10;96.97;;;;;;;;;;5028662;28;20545;-73
2022/04/24 11:02:23;;;;;;;134.70;125.93;;;;;;;;;;5022100;28;20463;-73
2022/04/24 11:04:59;;;;;;;176.97;162.77;;;;;;;;;;5039178;28;20466;-73
2022/04/24 11:07:27;;;;;;;189.57;173.57;;;;;;;;;;5035669;28;20491;-72
2022/04/24 11:10:03;;;;;;;191.43;174.00;;;;;;;;;;5036293;28;20537;-72
2022/04/24 11:12:31;;;;;;;147.23;135.07;;;;;;;;;;5035833;28;20457;-72
2022/04/24 11:15:02;;;;;;;182.47;162.50;;;;;;;;;;5035841;28;20450;-72
2022/04/24 11:17:30;;;;;;;193.93;168.97;;;;;;;;;;5034733;28;20461;-72
2022/04/24 11:20:03;;;;;;;185.43;169.47;;;;;;;;;;5035798;28;20906;-72
2022/04/24 11:22:32;;;;;;;24.07;22.33;;;;;;;;;;5036248;28;20458;-72
2022/04/24 11:25:01;;;;;;;68.70;64.60;;;;;;;;;;5034926;28;20529;-72
2022/04/24 11:27:33;;;;;;;53.33;50.87;;;;;;;;;;5036299;28;20486;-72
2022/04/24 11:30:01;;;;;;;45.53;42.70;;;;;;;;;;5035217;28;20443;-72
2022/04/24 11:32:29;;;;;;;127.03;118.90;;;;;;;;;;5031546;28;20766;-73
2022/04/24 11:34:57;;;;;;;84.70;80.30;;;;;;;;;;5016097;28;20590;-72
2022/04/24 11:37:25;;;;;;;22.57;21.27;;;;;;;;;;5034868;28;20871;-73
2022/04/24 11:40:01;;;;;;;96.27;91.17;;;;;;;;;;5034752;28;20466;-73
2022/04/24 11:42:31;;;;;;;47.03;44.60;;;;;;;;;;5035282;28;20533;-72
2022/04/24 11:50:28;;;;;;;76.60;72.50;;;;;;;;;;5034452;28;20417;-72
2022/04/24 11:52:57;;;;;;;8.67;6.93;;;;;;;;;;5035036;28;20457;-72
2022/04/24 11:56:01;;;;;;;12.03;6.80;;;;;;;;;;5032982;28;20975;-73
2022/04/24 11:58:15;;;;;;;7.87;5.30;;;;;;;;;;5014782;28;20446;-73
2022/04/24 12:00:49;;;;;;;49.63;46.87;;;;;;;;;;5013995;28;20457;-72
2022/04/24 12:03:19;;;;;;;7.00;5.07;;;;;;;;;;5033875;28;20478;-73
2022/04/24 12:05:47;;;;;;;55.70;52.80;;;;;;;;;;5020219;28;20859;-72
2022/04/24 12:08:15;;;;;;;58.63;55.20;;;;;;;;;;5027881;28;20477;-72
2022/04/24 12:10:44;;;;;;;71.70;67.90;;;;;;;;;;5033413;28;20457;-72
2022/04/24 12:13:13;;;;;;;64.13;60.97;;;;;;;;;;5033916;28;20451;-72
2022/04/24 12:15:50;;;;;;;47.40;44.53;;;;;;;;;;5033446;28;20449;-73
2022/04/24 12:18:22;;;;;;;67.17;63.67;;;;;;;;;;5055583;28;20444;-74
2022/04/24 12:20:50;;;;;;;59.57;55.93;;;;;;;;;;5054926;28;20453;-72
2022/04/24 12:23:18;;;;;;;68.07;64.47;;;;;;;;;;5052987;28;20883;-72
2022/04/24 12:25:51;;;;;;;71.97;68.30;;;;;;;;;;5033020;28;20451;-72
2022/04/24 12:28:33;;;;;;;100.00;94.73;;;;;;;;;;5013800;28;20486;-71
2022/04/24 12:31:03;;;;;;;348.53;187.30;;;;;;;;;;5015288;28;20462;-71
2022/04/24 12:33:31;;;;;;;82.73;78.60;;;;;;;;;;5015245;28;20470;-71
2022/04/24 12:36:09;;;;;;;203.87;173.93;;;;;;;;;;5029243;28;20486;-72
2022/04/24 12:38:37;;;;;;;168.17;156.87;;;;;;;;;;5033543;28;20442;-73
2022/04/24 12:41:10;;;;;;;158.07;147.27;;;;;;;;;;5033438;28;20460;-73
2022/04/24 12:43:37;;;;;;;186.87;173.63;;;;;;;;;;5035244;28;20458;-73
2022/04/24 12:46:09;;;;;;;256.67;200.97;;;;;;;;;;5035579;28;20482;-72
2022/04/24 12:48:46;;;;;;;107.83;101.33;;;;;;;;;;5031883;28;20497;-72
2022/04/24 12:51:14;;;;;;;109.37;103.50;;;;;;;;;;5037479;28;20511;-73
2022/04/24 12:53:43;;;;;;;156.93;146.63;;;;;;;;;;5013339;28;21175;-73
2022/04/24 12:56:11;;;;;;;161.97;151.70;;;;;;;;;;5013894;28;20509;-73
2022/04/24 12:58:39;;;;;;;159.17;148.53;;;;;;;;;;5030600;28;20458;-73
2022/04/24 13:01:11;;;;;;;140.97;132.97;;;;;;;;;;5030729;28;20553;-72
2022/04/24 13:03:39;;;;;;;155.60;146.20;;;;;;;;;;5014476;28;20470;-72
2022/04/24 13:06:08;;;;;;;152.57;143.17;;;;;;;;;;5014194;28;20554;-73
2022/04/24 13:08:37;;;;;;;88.57;84.13;;;;;;;;;;5012710;28;20479;-72
2022/04/24 13:11:05;;;;;;;58.87;55.57;;;;;;;;;;5014659;28;20474;-72
2022/04/24 13:13:37;;;;;;;67.63;63.87;;;;;;;;;;5020202;28;20466;-72
2022/04/24 13:18:53;;;;;;;105.80;100.03;;;;;;;;;;5037088;28;20520;-72
2022/04/24 13:21:22;;;;;;;82.40;78.03;;;;;;;;;;5042680;28;20822;-72
2022/04/24 13:23:49;;;;;;;103.00;97.20;;;;;;;;;;5028968;28;20524;-72
2022/04/24 13:26:22;;;;;;;105.03;98.87;;;;;;;;;;5013128;28;20477;-72
2022/04/24 13:28:50;;;;;;;89.43;84.93;;;;;;;;;;5012798;28;20522;-72
2022/04/24 13:31:18;;;;;;;102.90;97.33;;;;;;;;;;5013362;28;20842;-72
2022/04/24 13:33:46;;;;;;;77.17;72.80;;;;;;;;;;5012302;28;20456;-73
2022/04/24 13:36:17;;;;;;;77.13;73.33;;;;;;;;;;5012072;28;20525;-72
2022/04/24 13:38:46;;;;;;;96.83;91.53;;;;;;;;;;5013546;28;20491;-72
2022/04/24 13:41:14;;;;;;;41.97;39.87;;;;;;;;;;5020389;28;20979;-72
2022/04/24 13:43:46;;;;;;;39.20;37.00;;;;;;;;;;5032038;28;20492;-72
2022/04/24 13:46:14;;;;;;;30.13;28.23;;;;;;;;;;5022641;28;20494;-72
2022/04/24 13:48:50;;;;;;;66.13;63.13;;;;;;;;;;5022226;28;20650;-72
2022/04/24 13:51:22;;;;;;;64.83;61.43;;;;;;;;;;5040700;28;20965;-73
2022/04/24 13:53:50;;;;;;;59.87;56.83;;;;;;;;;;5028164;28;20472;-74
2022/04/24 13:56:17;;;;;;;82.70;78.60;;;;;;;;;;5031619;28;20552;-72
2022/04/24 13:58:51;;;;;;;74.40;70.63;;;;;;;;;;5031239;28;20447;-72
2022/04/24 14:01:20;;;;;;;48.83;45.90;;;;;;;;;;5034045;28;20471;-72
2022/04/24 14:03:51;;;;;;;87.57;83.03;;;;;;;;;;5032509;28;20454;-73
2022/04/24 14:06:32;;;;;;;70.13;66.53;;;;;;;;;;5037132;28;20469;-72
2022/04/24 14:09:02;;;;;;;64.07;60.63;;;;;;;;;;5050140;28;20486;-72
2022/04/24 14:11:32;;;;;;;11.60;8.50;;;;;;;;;;5032025;28;20560;-72
2022/04/24 14:14:06;;;;;;;149.20;139.23;;;;;;;;;;5039686;28;21064;-74
2022/04/24 14:16:33;;;;;;;27.70;25.70;;;;;;;;;;5019535;28;20488;-73
2022/04/24 14:19:03;;;;;;;12.47;11.33;;;;;;;;;;5037248;28;20980;-72
2022/04/24 14:21:35;;;;;;;16.47;15.23;;;;;;;;;;5035874;28;20825;-71
2022/04/24 14:24:11;;;;;;;15.83;14.53;;;;;;;;;;5034951;28;20457;-72